Time;durP1;ratioP1;P1;durP2;ratioP2;P2;SDS_P1;SDS_P2;PMS_P1;PMS_P2;Temp;Humidity;BMP_temperature;BMP_pressure;BME280_temperature;BME280_humidity;BME280_pressure;Samples;Min_cycle;Max_cycle;Signal;HPM_P1;HPM_P2
2021/01/05 00:00:29;;;;;;;;;;;;;;;0.10;100.00;100366.81;6229445;22;19953;-73
2021/01/05 00:02:54;;;;;;;;;;;;;;;0.07;100.00;100372.75;6228109;22;19915;-74
2021/01/05 00:05:21;;;;;;;;;;;;;;;0.06;100.00;100368.34;6254423;22;20033;-74
2021/01/05 00:07:47;;;;;;;;;;;;;;;0.07;100.00;100367.28;6281261;22;19913;-74
2021/01/05 00:10:12;;;;;;;;;;;;;;;0.07;100.00;100364.56;6204320;22;19934;-74
2021/01/05 00:12:38;;;;;;;;;;;;;;;0.08;100.00;100368.13;6280840;22;19978;-74
2021/01/05 00:15:04;;;;;;;;;;;;;;;0.09;100.00;100369.81;6254701;22;19954;-74
2021/01/05 00:17:29;;;;;;;;;;;;;;;0.10;100.00;100374.19;6253141;22;19910;-74
2021/01/05 00:19:54;;;;;;;;;;;;;;;0.07;100.00;100372.75;6229362;22;19981;-74
2021/01/05 00:22:20;;;;;;;;;;;;;;;0.07;100.00;100375.47;6203910;22;19903;-74
2021/01/05 00:24:45;;;;;;;;;;;;;;;0.09;100.00;100373.34;6228592;22;19907;-74
2021/01/05 00:27:10;;;;;;;;;;;;;;;0.09;100.00;100375.25;6281005;22;19907;-74
2021/01/05 00:29:36;;;;;;;;;;;;;;;0.09;100.00;100378.81;6281624;22;19918;-74
2021/01/05 00:32:10;;;;;;;;;;;;;;;0.07;100.00;100378.22;6228239;22;19934;-74
2021/01/05 00:34:36;;;;;;;;;;;;;;;0.07;100.00;100374.66;6253869;22;19949;-74
2021/01/05 00:37:01;;;;;;;;;;;;;;;0.05;100.00;100371.31;6254092;22;19903;-74
2021/01/05 00:39:27;;;;;;;;;;;;;;;0.07;100.00;100369.19;6203988;22;19974;-75
2021/01/05 00:41:52;;;;;;;;;;;;;;;0.08;100.00;100373.56;6228688;22;19989;-73
2021/01/05 00:44:17;;;;;;;;;;;;;;;0.06;100.00;100371.09;6281004;22;19943;-74
2021/01/05 00:46:43;;;;;;;;;;;;;;;0.06;100.00;100365.63;6253555;22;19914;-74
2021/01/05 00:49:08;;;;;;;;;;;;;;;0.09;100.00;100367.06;6281437;22;19977;-74
2021/01/05 00:51:33;;;;;;;;;;;;;;;0.06;100.00;100373.81;6253959;22;19903;-73
2021/01/05 00:53:59;;;;;;;;;;;;;;;0.07;100.00;100371.91;6254275;22;19938;-73
2021/01/05 00:56:24;;;;;;;;;;;;;;;0.07;100.00;100375.47;6228447;22;19903;-73
2021/01/05 00:58:49;;;;;;;;;;;;;;;0.08;100.00;100379.88;6254367;22;20598;-73
2021/01/05 01:01:15;;;;;;;;;;;;;;;0.08;100.00;100379.88;6253622;22;19903;-74
2021/01/05 01:03:40;;;;;;;;;;;;;;;0.09;100.00;100376.09;6225101;22;20364;-73
2021/01/05 01:06:06;;;;;;;;;;;;;;;0.09;100.00;100373.34;6253879;22;19953;-73
2021/01/05 01:08:31;;;;;;;;;;;;;;;0.12;100.00;100386.56;6254281;22;19903;-74
2021/01/05 01:10:56;;;;;;;;;;;;;;;0.10;100.00;100380.47;6280804;22;19904;-73
2021/01/05 01:13:22;;;;;;;;;;;;;;;0.09;100.00;100373.34;6253647;22;19990;-73
2021/01/05 01:15:47;;;;;;;;;;;;;;;0.10;100.00;100377.75;6228350;22;20385;-73
2021/01/05 01:18:12;;;;;;;;;;;;;;;0.10;100.00;100385.94;6254907;22;19913;-74
2021/01/05 01:20:38;;;;;;;;;;;;;;;0.10;100.00;100376.91;6230562;22;19911;-74
2021/01/05 01:23:04;;;;;;;;;;;;;;;0.10;100.00;100385.94;6282696;22;19914;-73
2021/01/05 01:25:29;;;;;;;;;;;;;;;0.10;100.00;100380.47;6230748;22;19903;-73
2021/01/05 01:27:54;;;;;;;;;;;;;;;0.07;100.00;100383.66;6255897;22;19907;-73
2021/01/05 01:30:20;;;;;;;;;;;;;;;0.06;100.00;100387.47;6255844;22;19903;-73
2021/01/05 01:32:45;;;;;;;;;;;;;;;0.05;100.00;100383.06;6230006;22;19930;-73
2021/01/05 01:35:11;;;;;;;;;;;;;;;0.05;100.00;100388.50;6255962;22;19910;-73
2021/01/05 01:37:36;;;;;;;;;;;;;;;0.06;100.00;100386.66;6282979;22;19910;-74
2021/01/05 01:40:03;;;;;;;;;;;;;;;0.06;100.00;100397.56;6230573;22;19910;-73
2021/01/05 01:42:28;;;;;;;;;;;;;;;0.08;100.00;100392.69;6255618;22;19903;-73
2021/01/05 01:44:53;;;;;;;;;;;;;;;0.09;100.00;100392.47;6255591;22;19942;-73
2021/01/05 01:47:22;;;;;;;;;;;;;;;0.08;100.00;100390.78;6255462;22;19903;-73
2021/01/05 01:49:47;;;;;;;;;;;;;;;0.09;100.00;100392.47;6255535;22;19907;-74
2021/01/05 01:52:13;;;;;;;;;;;;;;;0.11;100.00;100395.81;6255644;22;20424;-73
2021/01/05 01:54:41;;;;;;;;;;;;;;;0.09;100.00;100400.66;6282445;22;19903;-74
2021/01/05 01:57:13;;;;;;;;;;;;;;;0.08;100.00;100400.88;6282665;22;19903;-73
2021/01/05 01:59:44;;;;;;;;;;;;;;;0.07;100.00;100405.50;6282688;22;19903;-74
2021/01/05 02:02:10;;;;;;;;;;;;;;;0.11;100.00;100404.00;6281640;22;19911;-73
2021/01/05 02:04:42;;;;;;;;;;;;;;;0.08;100.00;100409.91;6255408;22;19914;-74
2021/01/05 02:07:13;;;;;;;;;;;;;;;0.06;100.00;100411.22;6255702;22;20338;-74
2021/01/05 02:09:49;;;;;;;;;;;;;;;0.07;100.00;100410.16;6255560;22;19926;-74
2021/01/05 02:12:15;;;;;;;;;;;;;;;0.05;100.00;100413.09;6229927;22;19903;-74
2021/01/05 02:14:59;;;;;;;;;;;;;;;0.03;100.00;100409.78;6255228;22;19903;-74
2021/01/05 02:17:32;;;;;;;;;;;;;;;0.12;100.00;100422.06;6228953;22;19903;-74
2021/01/05 02:20:03;;;;;;;;;;;;;;;0.08;100.00;100417.28;6282807;22;19914;-74
2021/01/05 02:22:47;;;;;;;;;;;;;;;0.10;100.00;100420.63;6255513;22;20377;-74
2021/01/05 02:25:22;;;;;;;;;;;;;;;0.09;100.00;100416.22;6255092;22;20392;-74
2021/01/05 02:27:55;;;;;;;;;;;;;;;0.10;100.00;100412.41;6229416;22;19903;-74
2021/01/05 02:30:22;;;;;;;;;;;;;;;0.15;100.00;100418.03;6229772;22;19903;-73
2021/01/05 02:32:55;;;;;;;;;;;;;;;0.14;100.00;100419.94;6229798;22;19910;-73
2021/01/05 02:35:24;;;;;;;;;;;;;;;0.14;100.00;100419.09;6205168;22;19979;-73
2021/01/05 02:38:04;;;;;;;;;;;;;;;0.14;100.00;100422.69;6229900;22;19913;-73
2021/01/05 02:40:29;;;;;;;;;;;;;;;0.15;100.00;100412.56;6229872;22;19910;-73
2021/01/05 02:42:55;;;;;;;;;;;;;;;0.11;100.00;100406.75;6255175;22;20236;-73
2021/01/05 02:45:25;;;;;;;;;;;;;;;0.12;100.00;100411.13;6282895;22;19990;-73
2021/01/05 02:47:57;;;;;;;;;;;;;;;0.11;100.00;100406.75;6254322;22;20225;-73
2021/01/05 02:50:22;;;;;;;;;;;;;;;0.13;100.00;100403.78;6255375;22;19903;-73
2021/01/05 02:53:23;;;;;;;;;;;;;;;0.17;100.00;100405.00;6282025;22;19953;-73
2021/01/05 02:55:48;;;;;;;;;;;;;;;0.16;100.00;100411.50;6133999;23;20322;-73
2021/01/05 02:58:16;;;;;;;;;;;;;;;0.13;100.00;100418.25;6158794;23;19954;-73
2021/01/05 03:00:48;;;;;;;;;;;;;;;0.17;100.00;100410.47;6133450;23;19904;-73
2021/01/05 03:03:32;;;;;;;;;;;;;;;0.13;100.00;100410.06;6157827;23;19944;-73
2021/01/05 03:06:13;;;;;;;;;;;;;;;0.12;100.00;100410.31;6158256;23;19905;-73
2021/01/05 03:08:40;;;;;;;;;;;;;;;0.09;100.00;100408.88;6133801;23;19909;-73
2021/01/05 03:11:06;;;;;;;;;;;;;;;0.06;100.00;100409.31;6133662;23;19982;-73
2021/01/05 03:13:42;;;;;;;;;;;;;;;0.01;100.00;100409.16;6133417;23;19904;-73
2021/01/05 03:16:08;;;;;;;;;;;;;;;-0.04;100.00;100411.72;6134334;23;19983;-74
2021/01/05 03:18:36;;;;;;;;;;;;;;;-0.07;100.00;100423.09;6134875;23;19939;-73
2021/01/05 03:21:03;;;;;;;;;;;;;;;-0.09;100.00;100414.31;6158849;23;19933;-73
2021/01/05 03:23:29;;;;;;;;;;;;;;;-0.14;100.00;100419.59;6133556;23;20348;-73
2021/01/05 03:25:55;;;;;;;;;;;;;;;-0.17;100.00;100415.41;6133540;23;19914;-73
2021/01/05 03:28:21;;;;;;;;;;;;;;;-0.19;100.00;100419.47;6158095;23;20323;-73
2021/01/05 03:30:48;;;;;;;;;;;;;;;-0.20;100.00;100428.69;6245255;22;19929;-73
2021/01/05 03:33:13;;;;;;;;;;;;;;;-0.23;100.00;100419.06;6229297;22;19918;-73
2021/01/05 03:35:39;;;;;;;;;;;;;;;-0.25;100.00;100422.03;6256651;22;19903;-73
2021/01/05 03:38:04;;;;;;;;;;;;;;;-0.21;100.00;100416.13;6256073;22;19906;-73
2021/01/05 03:40:29;;;;;;;;;;;;;;;-0.23;100.00;100414.44;6229920;22;19903;-73
2021/01/05 03:42:55;;;;;;;;;;;;;;;-0.24;100.00;100415.50;6254234;22;19918;-73
2021/01/05 03:45:25;;;;;;;;;;;;;;;-0.23;100.00;100419.06;6254867;22;19910;-73
2021/01/05 03:47:51;;;;;;;;;;;;;;;-0.21;100.00;100408.75;6281764;22;19907;-72
2021/01/05 03:50:17;;;;;;;;;;;;;;;-0.21;100.00;100416.13;6255189;22;19903;-73
2021/01/05 03:52:42;;;;;;;;;;;;;;;-0.20;100.00;100412.31;6255166;22;19968;-73
2021/01/05 03:55:08;;;;;;;;;;;;;;;-0.19;100.00;100414.00;6229957;22;19910;-73
2021/01/05 03:57:33;;;;;;;;;;;;;;;-0.19;100.00;100425.75;6204113;22;20037;-73
2021/01/05 03:59:59;;;;;;;;;;;;;;;-0.20;100.00;100421.34;6282182;22;19910;-73
2021/01/05 04:02:24;;;;;;;;;;;;;;;-0.20;100.00;100424.06;6229669;22;19918;-73
2021/01/05 04:04:49;;;;;;;;;;;;;;;-0.18;100.00;100426.59;6254687;22;19982;-73
2021/01/05 04:07:15;;;;;;;;;;;;;;;-0.19;100.00;100423.03;6255010;22;19961;-73
2021/01/05 04:09:40;;;;;;;;;;;;;;;-0.20;100.00;100410.41;6229715;22;20220;-73
2021/01/05 04:12:06;;;;;;;;;;;;;;;-0.17;100.00;100409.97;6282311;22;19910;-73
2021/01/05 04:14:31;;;;;;;;;;;;;;;-0.16;100.00;100425.31;6257000;22;19903;-73
2021/01/05 04:16:56;;;;;;;;;;;;;;;-0.13;100.00;100411.19;6283588;22;19926;-73
2021/01/05 04:19:22;;;;;;;;;;;;;;;-0.14;100.00;100406.81;6283170;22;19910;-73
2021/01/05 04:21:50;;;;;;;;;;;;;;;-0.12;100.00;100409.28;6230175;22;20376;-74
2021/01/05 04:24:16;;;;;;;;;;;;;;;-0.12;100.00;100409.28;6281492;22;19907;-74
2021/01/05 04:26:41;;;;;;;;;;;;;;;-0.14;100.00;100408.69;6256740;22;19934;-73
2021/01/05 04:29:07;;;;;;;;;;;;;;;-0.11;100.00;100411.81;6231402;22;19903;-73
2021/01/05 04:31:38;;;;;;;;;;;;;;;-0.16;100.00;100419.84;6283338;22;19910;-74
2021/01/05 04:34:04;;;;;;;;;;;;;;;-0.14;100.00;100416.88;6256401;22;19914;-74
2021/01/05 04:36:29;;;;;;;;;;;;;;;-0.11;100.00;100417.28;6230914;22;19903;-73
2021/01/05 04:38:54;;;;;;;;;;;;;;;-0.14;100.00;100419.59;6281136;22;19941;-73
2021/01/05 04:41:20;;;;;;;;;;;;;;;-0.12;100.00;100415.59;6253869;22;19903;-73
2021/01/05 04:43:45;;;;;;;;;;;;;;;-0.12;100.00;100412.03;6228997;22;19913;-73
2021/01/05 04:46:13;;;;;;;;;;;;;;;-0.11;100.00;100414.53;6281060;22;19910;-73
2021/01/05 04:48:42;;;;;;;;;;;;;;;-0.11;100.00;100411.81;6281621;22;19903;-73
2021/01/05 04:51:15;;;;;;;;;;;;;;;-0.11;100.00;100408.22;6254093;22;19937;-73
2021/01/05 04:53:56;;;;;;;;;;;;;;;-0.11;100.00;100400.03;6205513;22;19903;-73
2021/01/05 04:56:22;;;;;;;;;;;;;;;-0.08;100.00;100402.34;6282919;22;19914;-73
2021/01/05 04:58:51;;;;;;;;;;;;;;;-0.08;100.00;100392.25;6205848;22;20309;-73
2021/01/05 05:01:17;;;;;;;;;;;;;;;-0.08;100.00;100396.88;6256384;22;20324;-73
2021/01/05 05:03:56;;;;;;;;;;;;;;;-0.09;100.00;100404.22;6255456;22;19968;-73
2021/01/05 05:06:30;;;;;;;;;;;;;;;-0.12;100.00;100399.22;6256069;22;19952;-73
2021/01/05 05:09:07;;;;;;;;;;;;;;;-0.13;100.00;100411.19;6255763;22;19907;-73
2021/01/05 05:11:39;;;;;;;;;;;;;;;-0.18;100.00;100400.13;6230621;22;19903;-73
2021/01/05 05:14:05;;;;;;;;;;;;;;;-0.21;100.00;100405.19;6205866;22;19961;-73
2021/01/05 05:16:37;;;;;;;;;;;;;;;-0.25;100.00;100399.38;6255295;22;19903;-73
2021/01/05 05:19:13;;;;;;;;;;;;;;;-0.29;100.00;100406.31;6254596;22;19910;-73
2021/01/05 05:21:38;;;;;;;;;;;;;;;-0.32;100.00;100407.59;6255769;22;19978;-73
2021/01/05 05:24:03;;;;;;;;;;;;;;;-0.38;100.00;100407.69;6282949;22;19907;-73
2021/01/05 05:26:35;;;;;;;;;;;;;;;-0.44;100.00;100398.50;6282757;22;19903;-73
2021/01/05 05:29:08;;;;;;;;;;;;;;;-0.47;100.00;100398.94;6282616;22;19978;-73
2021/01/05 05:31:33;;;;;;;;;;;;;;;-0.56;100.00;100405.72;6255341;22;19918;-73
2021/01/05 05:34:00;;;;;;;;;;;;;;;-0.58;100.00;100413.31;6256110;22;19904;-73
2021/01/05 05:36:31;;;;;;;;;;;;;;;-0.58;100.00;100408.69;6256275;22;20304;-73
2021/01/05 05:38:57;;;;;;;;;;;;;;;-0.60;100.00;100410.81;6255410;22;19903;-73
2021/01/05 05:41:42;;;;;;;;;;;;;;;-0.61;100.00;100419.19;6255369;22;19903;-73
2021/01/05 05:44:17;;;;;;;;;;;;;;;-0.62;100.00;100421.09;6254626;22;19956;-73
2021/01/05 05:46:47;;;;;;;;;;;;;;;-0.69;100.00;100418.44;6255666;22;19910;-73
2021/01/05 05:49:19;;;;;;;;;;;;;;;-0.66;100.00;100419.06;6230041;22;20377;-73
2021/01/05 05:51:46;;;;;;;;;;;;;;;-0.63;100.00;100413.16;6229908;22;19907;-73
2021/01/05 05:54:16;;;;;;;;;;;;;;;-0.64;100.00;100406.88;6255019;22;19903;-74
2021/01/05 05:56:46;;;;;;;;;;;;;;;-0.60;100.00;100409.97;6203969;22;19910;-73
2021/01/05 05:59:12;;;;;;;;;;;;;;;-0.61;100.00;100408.28;6204876;22;19903;-73
2021/01/05 06:01:38;;;;;;;;;;;;;;;-0.58;100.00;100408.69;6228659;22;19903;-73
2021/01/05 06:04:04;;;;;;;;;;;;;;;-0.60;100.00;100410.81;6229601;22;19986;-73
2021/01/05 06:06:29;;;;;;;;;;;;;;;-0.64;100.00;100419.66;6255786;22;19911;-73
2021/01/05 06:08:55;;;;;;;;;;;;;;;-0.63;99.96;100419.44;6230120;22;19988;-73
2021/01/05 06:11:20;;;;;;;;;;;;;;;-0.62;99.64;100433.91;6255010;22;19903;-73
2021/01/05 06:13:45;;;;;;;;;;;;;;;-0.66;99.61;100430.78;6282279;22;19981;-73
2021/01/05 06:16:11;;;;;;;;;;;;;;;-0.68;99.67;100428.28;6205045;22;20335;-73
2021/01/05 06:18:36;;;;;;;;;;;;;;;-0.72;99.66;100429.78;6204278;22;19910;-73
2021/01/05 06:21:01;;;;;;;;;;;;;;;-0.74;99.76;100426.44;6255019;22;19903;-73
2021/01/05 06:23:27;;;;;;;;;;;;;;;-0.73;99.79;100439.00;6204692;22;20264;-73
2021/01/05 06:25:52;;;;;;;;;;;;;;;-0.74;99.70;100434.63;6255482;22;19907;-73
2021/01/05 06:28:17;;;;;;;;;;;;;;;-0.73;99.60;100432.72;6282279;22;19926;-72
2021/01/05 06:30:43;;;;;;;;;;;;;;;-0.78;99.79;100436.13;6281870;22;20320;-73
2021/01/05 06:33:08;;;;;;;;;;;;;;;-0.76;99.97;100433.16;6282054;22;19907;-73
2021/01/05 06:35:34;;;;;;;;;;;;;;;-0.80;99.99;100432.78;6255830;22;19907;-73
2021/01/05 06:37:59;;;;;;;;;;;;;;;-0.80;100.00;100431.97;6205230;22;19903;-73
2021/01/05 06:40:25;;;;;;;;;;;;;;;-0.80;100.00;100432.78;6229776;22;19930;-73
2021/01/05 06:42:50;;;;;;;;;;;;;;;-0.81;100.00;100428.38;6204512;22;19907;-73
2021/01/05 06:45:17;;;;;;;;;;;;;;;-0.77;100.00;100434.25;6205004;22;19910;-73
2021/01/05 06:47:42;;;;;;;;;;;;;;;-0.85;100.00;100434.50;6279563;22;19910;-73
2021/01/05 06:50:08;;;;;;;;;;;;;;;-0.85;100.00;100432.59;6280214;22;19907;-73
2021/01/05 06:52:33;;;;;;;;;;;;;;;-0.86;100.00;100438.28;6254884;22;19955;-73
2021/01/05 06:54:58;;;;;;;;;;;;;;;-0.82;100.00;100440.34;6281662;22;19909;-73
2021/01/05 06:57:24;;;;;;;;;;;;;;;-0.80;100.00;100442.88;6281902;22;19931;-73
2021/01/05 06:59:49;;;;;;;;;;;;;;;-0.84;100.00;100449.81;6281797;22;19910;-73
2021/01/05 07:02:15;;;;;;;;;;;;;;;-0.84;100.00;100452.53;6281298;22;19918;-73
2021/01/05 07:04:41;;;;;;;;;;;;;;;-0.83;100.00;100460.50;6282214;22;19914;-73
2021/01/05 07:07:06;;;;;;;;;;;;;;;-0.88;100.00;100460.31;6255073;22;19903;-72
2021/01/05 07:09:31;;;;;;;;;;;;;;;-0.85;100.00;100464.50;6254966;22;19910;-73
2021/01/05 07:11:57;;;;;;;;;;;;;;;-0.87;100.00;100463.88;6281325;22;19907;-73
2021/01/05 07:14:23;;;;;;;;;;;;;;;-0.88;100.00;100456.75;6204472;22;19903;-74
2021/01/05 07:16:48;;;;;;;;;;;;;;;-0.90;100.00;100460.53;6283370;22;19903;-74
2021/01/05 07:19:14;;;;;;;;;;;;;;;-0.90;100.00;100459.69;6204395;22;19907;-73
2021/01/05 07:21:39;;;;;;;;;;;;;;;-0.91;100.00;100455.31;6254963;22;19910;-72
2021/01/05 07:24:05;;;;;;;;;;;;;;;-0.90;100.00;100462.41;6281774;22;19911;-73
2021/01/05 07:26:36;;;;;;;;;;;;;;;-0.91;100.00;100453.41;6254624;22;20021;-73
2021/01/05 07:29:02;;;;;;;;;;;;;;;-0.90;100.00;100462.41;6279964;22;19925;-73
2021/01/05 07:31:28;;;;;;;;;;;;;;;-0.94;100.00;100472.13;6254030;22;19931;-73
2021/01/05 07:33:53;;;;;;;;;;;;;;;-0.94;100.00;100474.84;6281823;22;19911;-72
2021/01/05 07:36:24;;;;;;;;;;;;;;;-0.96;100.00;100476.94;6255076;22;19903;-73
2021/01/05 07:38:50;;;;;;;;;;;;;;;-0.97;100.00;100469.81;6281852;22;19931;-73
2021/01/05 07:41:15;;;;;;;;;;;;;;;-1.00;99.98;100475.72;6229090;22;20325;-73
2021/01/05 07:43:41;;;;;;;;;;;;;;;-1.01;100.00;100471.31;6281752;22;19930;-73
2021/01/05 07:46:06;;;;;;;;;;;;;;;-1.00;99.98;100473.00;6254446;22;19907;-72
2021/01/05 07:48:31;;;;;;;;;;;;;;;-0.98;99.99;100481.75;6254292;22;20301;-73
2021/01/05 07:50:57;;;;;;;;;;;;;;;-1.04;99.89;100483.47;6281330;22;19903;-73
2021/01/05 07:53:22;;;;;;;;;;;;;;;-1.10;99.83;100484.34;6229587;22;20295;-72
2021/01/05 07:55:47;;;;;;;;;;;;;;;-1.08;99.98;100484.97;6254811;22;19918;-72
2021/01/05 07:58:13;;;;;;;;;;;;;;;-1.11;99.87;100496.31;6203809;22;20568;-73
2021/01/05 08:00:38;;;;;;;;;;;;;;;-1.11;99.94;100496.31;6228816;22;19942;-73
2021/01/05 08:03:04;;;;;;;;;;;;;;;-1.08;99.95;100495.06;6281328;22;19918;-73
2021/01/05 08:05:29;;;;;;;;;;;;;;;-1.11;99.84;100499.06;6281632;22;20368;-72
2021/01/05 08:07:55;;;;;;;;;;;;;;;-1.10;99.93;100491.69;6253756;22;19907;-73
2021/01/05 08:10:25;;;;;;;;;;;;;;;-1.12;99.81;100495.47;6281214;22;19903;-72
2021/01/05 08:12:51;;;;;;;;;;;;;;;-1.11;99.79;100493.59;6204136;22;20260;-72
2021/01/05 08:15:17;;;;;;;;;;;;;;;-1.13;99.86;100493.81;6229488;22;19911;-73
2021/01/05 08:17:42;;;;;;;;;;;;;;;-1.10;99.68;100483.53;6252969;22;20208;-73
2021/01/05 08:20:08;;;;;;;;;;;;;;;-1.10;99.82;100489.81;6229051;22;19907;-73
2021/01/05 08:22:33;;;;;;;;;;;;;;;-1.14;99.71;100492.13;6229144;22;20284;-72
2021/01/05 08:24:58;;;;;;;;;;;;;;;-1.15;99.76;100490.44;6204235;22;19986;-73
2021/01/05 08:27:24;;;;;;;;;;;;;;;-1.15;99.73;100492.34;6253900;22;19926;-73
2021/01/05 08:29:49;;;;;;;;;;;;;;;-1.16;99.63;100490.69;6228605;22;19976;-72
2021/01/05 08:32:14;;;;;;;;;;;;;;;-1.15;99.66;100497.78;6254111;22;19907;-73
2021/01/05 08:34:40;;;;;;;;;;;;;;;-1.22;99.83;100505.19;6229114;22;20312;-73
2021/01/05 08:37:05;;;;;;;;;;;;;;;-1.17;99.61;100506.22;6228888;22;19910;-73
2021/01/05 08:39:30;;;;;;;;;;;;;;;-1.21;99.70;100506.84;6281087;22;19955;-73
2021/01/05 08:41:56;;;;;;;;;;;;;;;-1.23;99.77;100509.78;6203617;22;19957;-73
2021/01/05 08:44:21;;;;;;;;;;;;;;;-1.25;99.74;100501.00;6229169;22;19907;-73
2021/01/05 08:46:47;;;;;;;;;;;;;;;-1.23;99.68;100506.22;6203518;22;19903;-72
2021/01/05 08:49:12;;;;;;;;;;;;;;;-1.25;99.59;100506.44;6254268;22;19910;-73
2021/01/05 08:51:37;;;;;;;;;;;;;;;-1.28;99.75;100520.50;6229324;22;19984;-72
2021/01/05 08:54:03;;;;;;;;;;;;;;;-1.30;99.96;100514.44;6281470;22;19975;-72
2021/01/05 08:56:28;;;;;;;;;;;;;;;-1.34;99.80;100518.63;6228442;22;19910;-72
2021/01/05 08:58:54;;;;;;;;;;;;;;;-1.41;100.00;100515.09;6254387;22;19986;-72
2021/01/05 09:01:19;;;;;;;;;;;;;;;-1.43;100.00;100517.19;6280610;22;19907;-73
2021/01/05 09:03:45;;;;;;;;;;;;;;;-1.41;100.00;100517.84;6254213;22;19918;-73
2021/01/05 09:06:13;;;;;;;;;;;;;;;-1.45;100.00;100516.56;6228525;22;20359;-73
2021/01/05 09:08:39;;;;;;;;;;;;;;;-1.41;100.00;100515.94;6254587;22;19903;-73
2021/01/05 09:11:08;;;;;;;;;;;;;;;-1.40;100.00;100508.59;6253716;22;19991;-73
2021/01/05 09:13:34;;;;;;;;;;;;;;;-1.40;100.00;100516.78;6254302;22;19911;-73
2021/01/05 09:16:00;;;;;;;;;;;;;;;-1.39;100.00;100518.47;6280525;22;20317;-73
2021/01/05 09:18:26;;;;;;;;;;;;;;;-1.39;100.00;100515.75;6253120;22;19938;-73
2021/01/05 09:20:51;;;;;;;;;;;;;;;-1.37;100.00;100519.06;6228871;22;20323;-73
2021/01/05 09:23:21;;;;;;;;;;;;;;;-1.41;100.00;100513.22;6254153;22;19914;-73
2021/01/05 09:25:48;;;;;;;;;;;;;;;-1.36;100.00;100510.69;6280703;22;19903;-73
2021/01/05 09:28:13;;;;;;;;;;;;;;;-1.35;100.00;100516.97;6228778;22;19911;-73
2021/01/05 09:30:39;;;;;;;;;;;;;;;-1.35;100.00;100508.78;6228138;22;20224;-73
2021/01/05 09:33:04;;;;;;;;;;;;;;;-1.31;100.00;100510.06;6228869;22;19903;-72
2021/01/05 09:35:30;;;;;;;;;;;;;;;-1.28;100.00;100512.34;6203551;22;19903;-72
2021/01/05 09:37:55;;;;;;;;;;;;;;;-1.27;100.00;100507.72;6254231;22;20052;-73
2021/01/05 09:40:21;;;;;;;;;;;;;;;-1.27;100.00;100514.00;6230602;22;20232;-73
2021/01/05 09:42:46;;;;;;;;;;;;;;;-1.24;100.00;100515.47;6230446;22;19929;-72
2021/01/05 09:45:12;;;;;;;;;;;;;;;-1.24;100.00;100516.28;6230434;22;19903;-72
2021/01/05 09:47:37;;;;;;;;;;;;;;;-1.21;100.00;100515.84;6229948;22;19910;-72
2021/01/05 09:50:04;;;;;;;;;;;;;;;-1.18;100.00;100515.41;6255540;22;19963;-73
2021/01/05 09:52:31;;;;;;;;;;;;;;;-1.17;100.00;100514.38;6230986;22;19903;-73
2021/01/05 09:54:57;;;;;;;;;;;;;;;-1.12;100.00;100517.25;6255614;22;19982;-73
2021/01/05 09:57:31;;;;;;;;;;;;;;;-1.07;99.97;100518.53;6229848;22;19903;-77
2021/01/05 09:59:57;;;;;;;;;;;;;;;-1.06;100.00;100520.19;6255558;22;19929;-73
2021/01/05 10:02:22;;;;;;;;;;;;;;;-1.03;100.00;100522.47;6282379;22;19955;-72
2021/01/05 10:04:48;;;;;;;;;;;;;;;-1.00;100.00;100524.78;6255362;22;19926;-73
2021/01/05 10:07:13;;;;;;;;;;;;;;;-0.98;100.00;100517.22;6255079;22;19907;-73
2021/01/05 10:09:38;;;;;;;;;;;;;;;-0.94;100.00;100521.19;6255242;22;19957;-73
2021/01/05 10:12:04;;;;;;;;;;;;;;;-0.91;100.00;100523.47;6229966;22;19910;-73
2021/01/05 10:14:30;;;;;;;;;;;;;;;-0.88;100.00;100528.50;6255497;22;19925;-73
2021/01/05 10:16:56;;;;;;;;;;;;;;;-0.85;99.99;100514.41;6280794;22;20263;-73
2021/01/05 10:19:22;;;;;;;;;;;;;;;-0.82;100.00;100515.88;6228489;22;19911;-73
2021/01/05 10:21:47;;;;;;;;;;;;;;;-0.80;99.92;100522.78;6255540;22;19903;-73
2021/01/05 10:24:12;;;;;;;;;;;;;;;-0.78;100.00;100533.44;6204803;22;19949;-73
2021/01/05 10:26:38;;;;;;;;;;;;;;;-0.74;100.00;100524.63;6281849;22;19903;-74
2021/01/05 10:29:04;;;;;;;;;;;;;;;-0.71;100.00;100537.81;6198274;22;20299;-74
2021/01/05 10:31:37;;;;;;;;;;;;;;;-0.68;100.00;100531.09;6228068;22;20306;-74
2021/01/05 10:34:02;;;;;;;;;;;;;;;-0.64;100.00;100523.28;6282705;22;19903;-74
2021/01/05 10:36:28;;;;;;;;;;;;;;;-0.62;100.00;100527.47;6228838;22;20263;-74
2021/01/05 10:38:53;;;;;;;;;;;;;;;-0.58;100.00;100520.53;6255135;22;19918;-74
2021/01/05 10:41:18;;;;;;;;;;;;;;;-0.55;100.00;100522.81;6255159;22;19903;-73
2021/01/05 10:43:44;;;;;;;;;;;;;;;-0.48;100.00;100528.22;6282037;22;19914;-73
2021/01/05 10:46:10;;;;;;;;;;;;;;;-0.42;100.00;100527.34;6253821;22;19911;-73
2021/01/05 10:48:35;;;;;;;;;;;;;;;-0.36;100.00;100523.75;6254551;22;19907;-73
2021/01/05 10:51:02;;;;;;;;;;;;;;;-0.30;100.00;100519.28;6254959;22;19910;-73
2021/01/05 10:53:29;;;;;;;;;;;;;;;-0.20;100.00;100524.22;6255146;22;19910;-73
2021/01/05 10:55:54;;;;;;;;;;;;;;;-0.14;100.00;100517.88;6281753;22;19907;-73
2021/01/05 10:58:19;;;;;;;;;;;;;;;-0.07;100.00;100514.03;6255063;22;19953;-73
2021/01/05 11:00:45;;;;;;;;;;;;;;;0.01;100.00;100509.34;6229297;22;19903;-73
2021/01/05 11:03:11;;;;;;;;;;;;;;;0.08;100.00;100505.47;6253950;22;19911;-73
2021/01/05 11:05:36;;;;;;;;;;;;;;;0.17;100.00;100506.88;6281739;22;19945;-74
2021/01/05 11:08:01;;;;;;;;;;;;;;;0.34;100.00;100495.38;6254726;22;19910;-73
2021/01/05 11:10:27;;;;;;;;;;;;;;;0.45;100.00;100494.59;6255042;22;19903;-72
2021/01/05 11:12:55;;;;;;;;;;;;;;;0.57;100.00;100491.94;6254476;22;19910;-74
2021/01/05 11:15:20;;;;;;;;;;;;;;;0.65;100.00;100492.47;6254698;22;19957;-73
2021/01/05 11:17:46;;;;;;;;;;;;;;;0.76;100.00;100488.13;6281529;22;19903;-73
2021/01/05 11:20:12;;;;;;;;;;;;;;;0.83;100.00;100482.56;6229923;22;20313;-73
2021/01/05 11:22:38;;;;;;;;;;;;;;;0.89;100.00;100474.28;6255087;22;19903;-74
2021/01/05 11:25:03;;;;;;;;;;;;;;;0.96;100.00;100470.63;6281516;22;20701;-74
2021/01/05 11:27:29;;;;;;;;;;;;;;;1.04;100.00;100471.13;6229508;22;19912;-73
2021/01/05 11:29:54;;;;;;;;;;;;;;;1.11;100.00;100471.88;6229562;22;19911;-73
2021/01/05 11:32:20;;;;;;;;;;;;;;;1.18;100.00;100462.72;6280712;22;20395;-73
2021/01/05 11:34:45;;;;;;;;;;;;;;;1.20;100.00;100463.31;6254367;22;19902;-73
2021/01/05 11:37:11;;;;;;;;;;;;;;;1.26;100.00;100463.22;6228290;22;19909;-74
2021/01/05 11:39:38;;;;;;;;;;;;;;;1.32;100.00;100454.09;6204518;22;19907;-74
2021/01/05 11:42:03;;;;;;;;;;;;;;;1.37;100.00;100453.38;6254047;22;19911;-73
2021/01/05 11:44:29;;;;;;;;;;;;;;;1.41;100.00;100449.09;6228902;22;20242;-74
2021/01/05 11:46:55;;;;;;;;;;;;;;;1.47;100.00;100448.16;6228599;22;20327;-74
2021/01/05 11:49:21;;;;;;;;;;;;;;;1.58;100.00;100451.97;6281646;22;20296;-73
2021/01/05 11:51:48;;;;;;;;;;;;;;;1.65;99.20;100452.72;6228999;22;19904;-74
2021/01/05 11:54:14;;;;;;;;;;;;;;;1.71;98.81;100453.66;6281372;22;19907;-73
2021/01/05 11:56:39;;;;;;;;;;;;;;;1.73;98.15;100440.59;6281574;22;20239;-74
2021/01/05 11:59:05;;;;;;;;;;;;;;;1.71;98.51;100453.66;6281717;22;19929;-73
2021/01/05 12:01:34;;;;;;;;;;;;;;;1.68;98.38;100449.50;6253191;22;19903;-74
2021/01/05 12:03:59;;;;;;;;;;;;;;;1.72;98.59;100449.84;6228493;22;19951;-74
2021/01/05 12:06:25;;;;;;;;;;;;;;;1.76;99.24;100445.59;6229266;22;20370;-74
2021/01/05 12:08:50;;;;;;;;;;;;;;;1.77;98.21;100442.59;6228725;22;19903;-74
2021/01/05 12:11:42;;;;;;;;;;;;;;;1.77;97.41;100434.38;6253920;22;19935;-73
2021/01/05 12:14:07;;;;;;;;;;;;;;;1.92;97.94;100431.19;6248046;22;19903;-73
2021/01/05 12:16:37;;;;;;;;;;;;;;;1.94;97.55;100428.19;6228706;22;19903;-73
2021/01/05 12:19:03;;;;;;;;;;;;;;;2.00;97.12;100435.44;6229138;22;19910;-74
2021/01/05 12:21:29;;;;;;;;;;;;;;;2.11;95.93;100431.03;6254184;22;19984;-73
2021/01/05 12:23:55;;;;;;;;;;;;;;;2.10;96.15;100423.91;6253193;22;20313;-74
2021/01/05 12:26:41;;;;;;;;;;;;;;;2.15;95.66;100421.28;6229075;22;19903;-73
2021/01/05 12:29:07;;;;;;;;;;;;;;;2.26;94.65;100423.16;6252994;22;19903;-74
2021/01/05 12:31:40;;;;;;;;;;;;;;;2.31;94.21;100425.97;6253759;22;19903;-73